createdAt,value
2019-05-22T00:00:32.249Z,20.40
2019-05-22T00:03:01.242Z,16.97
2019-05-22T00:05:33.868Z,19.47
2019-05-22T00:08:05.069Z,19.57
2019-05-22T00:10:34.683Z,19.50
2019-05-22T00:13:07.274Z,21.00
2019-05-22T00:15:38.708Z,17.73
2019-05-22T00:18:09.779Z,22.30
2019-05-22T00:20:39.178Z,20.70
2019-05-22T00:23:10.623Z,27.07
2019-05-22T00:25:40.975Z,17.43
2019-05-22T00:28:10.803Z,20.03
2019-05-22T00:30:44.318Z,21.93
2019-05-22T00:33:14.212Z,19.07
2019-05-22T00:35:44.860Z,22.60
2019-05-22T00:38:15.052Z,18.07
2019-05-22T00:40:47.509Z,18.60
2019-05-22T00:43:39.664Z,23.23
2019-05-22T00:46:11.916Z,22.60
2019-05-22T00:48:43.866Z,17.23
2019-05-22T00:51:29.856Z,17.23
2019-05-22T00:54:16.763Z,16.87
2019-05-22T00:56:54.237Z,15.10
2019-05-22T00:59:29.389Z,17.67
2019-05-22T01:02:02.411Z,18.47
2019-05-22T01:04:35.884Z,19.10
2019-05-22T01:07:09.590Z,16.77
2019-05-22T01:09:41.858Z,18.63
2019-05-22T01:12:19.513Z,21.10
2019-05-22T01:14:50.731Z,17.83
2019-05-22T01:17:21.862Z,19.23
2019-05-22T01:19:54.763Z,20.27
2019-05-22T01:22:25.562Z,20.07
2019-05-22T01:24:57.104Z,23.07
2019-05-22T01:27:27.338Z,21.43
2019-05-22T01:29:57.836Z,21.87
2019-05-22T01:32:47.932Z,22.47
2019-05-22T01:35:19.312Z,18.60
2019-05-22T01:37:48.404Z,23.77
2019-05-22T01:40:32.569Z,20.07
2019-05-22T01:43:03.639Z,22.83
2019-05-22T01:45:33.682Z,21.00
2019-05-22T01:48:10.899Z,26.03
2019-05-22T01:50:51.054Z,28.60
2019-05-22T01:53:23.734Z,25.50
2019-05-22T01:55:58.494Z,26.73
2019-05-22T01:58:30.467Z,25.33
2019-05-22T02:01:00.742Z,24.03
2019-05-22T02:03:32.611Z,25.93
2019-05-22T02:06:01.969Z,27.33
2019-05-22T02:08:33.017Z,25.37
2019-05-22T02:11:03.566Z,25.17
2019-05-22T02:13:40.404Z,32.83
2019-05-22T02:16:11.440Z,27.93
2019-05-22T02:19:00.540Z,26.50
2019-05-22T02:21:30.830Z,32.53
2019-05-22T02:24:00.375Z,28.27
2019-05-22T02:26:30.831Z,30.17
2019-05-22T02:29:01.239Z,32.70
2019-05-22T02:31:30.833Z,30.30
2019-05-22T02:34:02.546Z,30.47
2019-05-22T02:36:34.747Z,36.70
2019-05-22T02:39:07.463Z,32.73
2019-05-22T02:41:43.419Z,23.90
2019-05-22T02:44:12.870Z,36.37
2019-05-22T02:46:42.047Z,32.93
2019-05-22T02:49:14.274Z,32.47
2019-05-22T02:51:43.870Z,31.80
2019-05-22T02:54:14.305Z,29.17
2019-05-22T02:56:43.496Z,30.27
2019-05-22T02:59:15.221Z,27.50
2019-05-22T03:01:45.303Z,32.90
2019-05-22T03:04:16.175Z,27.40
2019-05-22T03:06:45.202Z,35.47
2019-05-22T03:09:22.872Z,30.30
2019-05-22T03:12:01.598Z,25.07
2019-05-22T03:14:32.851Z,29.63
2019-05-22T03:17:05.384Z,30.50
2019-05-22T03:19:38.994Z,34.40
2019-05-22T03:22:29.269Z,41.07
2019-05-22T03:25:01.876Z,32.37
2019-05-22T03:27:38.915Z,34.37
2019-05-22T03:30:13.695Z,35.83
2019-05-22T03:32:44.413Z,32.50
2019-05-22T03:35:14.542Z,36.10
2019-05-22T03:37:43.805Z,35.67
2019-05-22T03:40:13.205Z,39.53
2019-05-22T03:42:42.757Z,33.73
2019-05-22T03:45:13.506Z,37.27
2019-05-22T03:47:43.802Z,36.17
2019-05-22T03:50:13.708Z,31.57
2019-05-22T03:52:43.788Z,28.87
2019-05-22T03:55:14.127Z,32.27
2019-05-22T03:57:44.544Z,33.97
2019-05-22T04:00:17.342Z,34.07
2019-05-22T04:02:50.778Z,29.87
2019-05-22T04:05:20.575Z,33.67
2019-05-22T04:07:51.525Z,30.97
2019-05-22T04:10:21.312Z,35.30
2019-05-22T04:12:51.545Z,31.47
2019-05-22T04:15:22.104Z,33.93
2019-05-22T04:17:53.452Z,38.50
2019-05-22T04:20:23.318Z,31.17
2019-05-22T04:22:59.887Z,30.67
2019-05-22T04:25:29.666Z,37.40
2019-05-22T04:27:58.791Z,31.90
2019-05-22T04:30:28.982Z,29.57
2019-05-22T04:32:58.368Z,33.53
2019-05-22T04:35:28.985Z,34.57
2019-05-22T04:37:58.781Z,35.77
2019-05-22T04:40:58.298Z,28.40
2019-05-22T04:43:31.157Z,35.30
2019-05-22T04:46:02.128Z,28.53
2019-05-22T04:48:34.729Z,30.20
2019-05-22T04:51:25.081Z,27.50
2019-05-22T04:53:55.783Z,24.83
2019-05-22T04:56:26.153Z,24.47
2019-05-22T04:58:55.851Z,28.00
2019-05-22T05:01:25.684Z,23.07
2019-05-22T05:03:54.976Z,25.20
2019-05-22T05:06:26.271Z,25.23
2019-05-22T05:08:56.397Z,22.87
2019-05-22T05:11:26.174Z,27.37
2019-05-22T05:13:55.465Z,24.97
2019-05-22T05:16:24.561Z,21.83
2019-05-22T05:18:54.225Z,24.27
2019-05-22T05:21:23.490Z,21.90
2019-05-22T05:23:52.792Z,27.60
2019-05-22T05:26:22.792Z,26.10
2019-05-22T05:28:52.358Z,25.40
2019-05-22T05:31:22.466Z,27.17
2019-05-22T05:34:21.201Z,25.77
2019-05-22T05:36:50.516Z,28.13
2019-05-22T05:40:09.091Z,27.10
2019-05-22T05:42:38.876Z,25.37
2019-05-22T05:45:13.422Z,29.53
2019-05-22T05:47:41.699Z,29.67
2019-05-22T05:50:13.227Z,24.13
2019-05-22T05:52:42.790Z,26.07
2019-05-22T05:55:13.771Z,24.10
2019-05-22T05:58:24.924Z,25.97
2019-05-22T06:00:57.815Z,28.93
2019-05-22T06:03:32.468Z,17.73
2019-05-22T06:06:09.594Z,24.80
2019-05-22T06:08:39.574Z,24.67
2019-05-22T06:11:45.616Z,25.43
2019-05-22T06:14:23.819Z,20.93
2019-05-22T06:17:33.211Z,22.70
2019-05-22T06:20:06.113Z,21.37
2019-05-22T06:22:35.480Z,26.83
2019-05-22T06:25:06.329Z,21.60
2019-05-22T06:27:44.327Z,26.27
2019-05-22T06:30:17.855Z,20.07
2019-05-22T06:33:28.543Z,21.83
2019-05-22T06:35:57.958Z,22.40
2019-05-22T06:38:48.595Z,22.03
2019-05-22T06:41:18.127Z,31.67
2019-05-22T06:44:11.713Z,24.07
2019-05-22T06:46:46.034Z,19.33
2019-05-22T06:49:53.807Z,22.77
2019-05-22T06:52:23.342Z,22.57
2019-05-22T06:54:52.567Z,22.90
2019-05-22T06:57:39.838Z,21.30
2019-05-22T07:00:21.607Z,26.57
2019-05-22T07:02:51.308Z,22.43
2019-05-22T07:05:20.878Z,21.40
2019-05-22T07:07:50.445Z,18.93
2019-05-22T07:10:20.984Z,29.37
2019-05-22T07:12:51.224Z,25.70
2019-05-22T07:15:34.105Z,24.73
2019-05-22T07:18:05.521Z,23.93
2019-05-22T07:20:37.890Z,19.30
2019-05-22T07:23:08.082Z,23.37
2019-05-22T07:25:41.228Z,24.80
2019-05-22T07:28:10.333Z,23.73
2019-05-22T07:30:39.502Z,19.30
2019-05-22T07:33:09.202Z,19.10
2019-05-22T07:35:50.271Z,20.00
2019-05-22T07:38:09.813Z,14.83
2019-05-22T07:40:39.484Z,26.77
2019-05-22T07:43:08.660Z,22.60
2019-05-22T07:45:37.881Z,20.27
2019-05-22T07:48:07.657Z,23.33
2019-05-22T07:50:48.030Z,18.73
2019-05-22T07:53:15.580Z,16.00
2019-05-22T07:55:45.167Z,18.37
2019-05-22T07:58:16.286Z,20.27
2019-05-22T08:01:00.603Z,22.50
2019-05-22T08:03:31.805Z,15.60
2019-05-22T08:06:01.938Z,21.97
2019-05-22T08:08:35.369Z,18.87
2019-05-22T08:11:05.777Z,16.17
2019-05-22T08:13:35.527Z,13.70
2019-05-22T08:16:04.988Z,13.40
2019-05-22T08:18:38.701Z,18.27
2019-05-22T08:21:08.239Z,15.90
2019-05-22T08:23:37.685Z,15.27
2019-05-22T08:26:08.118Z,12.57
2019-05-22T08:28:39.328Z,18.67
2019-05-22T08:31:10.070Z,23.67
2019-05-22T08:33:39.691Z,16.13
2019-05-22T08:36:09.461Z,18.73
2019-05-22T08:38:39.187Z,17.93
2019-05-22T08:41:09.759Z,12.47
2019-05-22T08:44:03.430Z,19.03
2019-05-22T08:46:12.349Z,21.47
2019-05-22T08:48:47.850Z,15.70
2019-05-22T08:51:15.016Z,13.87
2019-05-22T08:53:48.078Z,17.70
2019-05-22T08:56:16.092Z,23.03
2019-05-22T08:58:47.633Z,16.97
2019-05-22T09:01:16.640Z,11.60
2019-05-22T09:03:46.586Z,24.37
2019-05-22T09:06:16.122Z,13.50
2019-05-22T09:08:45.570Z,15.67
2019-05-22T09:11:15.139Z,11.80
2019-05-22T09:14:03.698Z,13.60
2019-05-22T09:16:32.639Z,19.37
2019-05-22T09:19:02.569Z,15.07
2019-05-22T09:21:32.615Z,16.30
2019-05-22T09:24:02.084Z,14.47
2019-05-22T09:26:32.713Z,12.43
2019-05-22T09:29:02.597Z,13.67
2019-05-22T09:31:31.964Z,14.67
2019-05-22T09:34:01.233Z,8.77
2019-05-22T09:36:30.423Z,10.67
2019-05-22T09:38:59.620Z,10.40
2019-05-22T09:41:28.436Z,5.53
2019-05-22T09:43:57.632Z,8.47
2019-05-22T09:46:27.600Z,9.33
2019-05-22T09:48:57.694Z,9.37
2019-05-22T09:51:26.640Z,4.97
2019-05-22T09:53:56.845Z,8.87
2019-05-22T09:56:26.135Z,7.43
2019-05-22T09:58:55.652Z,9.17
2019-05-22T10:01:24.899Z,7.03
2019-05-22T10:03:54.106Z,9.67
2019-05-22T10:06:23.349Z,5.50
2019-05-22T10:08:52.461Z,7.83
2019-05-22T10:11:22.111Z,9.93
2019-05-22T10:13:51.458Z,14.83
2019-05-22T10:16:20.866Z,8.50
2019-05-22T10:18:52.982Z,8.93
2019-05-22T10:21:21.854Z,7.77
2019-05-22T10:23:51.237Z,7.07
2019-05-22T10:26:20.378Z,4.90
2019-05-22T10:28:49.421Z,8.67
2019-05-22T10:31:21.680Z,11.23
2019-05-22T10:33:51.921Z,10.83
2019-05-22T10:36:20.476Z,9.33
2019-05-22T10:38:49.624Z,9.73
2019-05-22T10:41:21.005Z,8.77
2019-05-22T10:43:51.148Z,6.70
2019-05-22T10:46:20.484Z,5.10
2019-05-22T10:48:50.043Z,6.30
2019-05-22T10:51:19.159Z,4.13
2019-05-22T10:53:48.540Z,8.77
2019-05-22T10:56:18.124Z,6.50
2019-05-22T10:58:47.955Z,4.13
2019-05-22T11:01:16.761Z,4.47
2019-05-22T11:03:46.760Z,4.10
2019-05-22T11:06:16.567Z,9.23
2019-05-22T11:08:45.925Z,3.60
2019-05-22T11:11:16.886Z,3.97
2019-05-22T11:14:00.725Z,5.17
2019-05-22T11:16:18.038Z,5.13
2019-05-22T11:18:47.092Z,3.73
2019-05-22T11:21:16.587Z,3.40
2019-05-22T11:23:51.874Z,4.27
2019-05-22T11:26:17.708Z,5.70
2019-05-22T11:28:47.621Z,5.90
2019-05-22T11:31:18.594Z,7.13
2019-05-22T11:33:47.454Z,4.87
2019-05-22T11:36:18.051Z,5.40
2019-05-22T11:38:47.562Z,3.33
2019-05-22T11:41:18.865Z,3.83
2019-05-22T11:43:47.826Z,6.27
2019-05-22T11:46:18.007Z,3.27
2019-05-22T11:48:47.896Z,6.47
2019-05-22T11:51:17.869Z,6.33
2019-05-22T11:53:46.940Z,6.93
2019-05-22T11:56:16.387Z,3.53
2019-05-22T11:58:45.579Z,3.77
2019-05-22T12:01:15.181Z,3.50
2019-05-22T12:03:44.565Z,4.20
2019-05-22T12:06:14.600Z,6.20
2019-05-22T12:08:45.374Z,4.83
2019-05-22T12:11:18.485Z,4.73
2019-05-22T12:13:48.425Z,5.67
2019-05-22T12:16:17.688Z,3.77
2019-05-22T12:18:48.818Z,4.60
2019-05-22T12:21:18.521Z,6.93
2019-05-22T12:23:47.696Z,4.10
2019-05-22T12:26:17.544Z,7.93
2019-05-22T12:28:46.774Z,3.80
2019-05-22T12:31:16.027Z,3.90
2019-05-22T12:33:45.298Z,7.23
2019-05-22T12:36:14.383Z,7.47
2019-05-22T12:38:44.560Z,6.67
2019-05-22T12:41:15.457Z,6.00
2019-05-22T12:43:45.109Z,7.17
2019-05-22T12:46:14.880Z,5.60
2019-05-22T12:48:45.129Z,3.87
2019-05-22T12:51:16.257Z,6.60
2019-05-22T12:53:46.610Z,3.40
2019-05-22T12:56:16.014Z,5.30
2019-05-22T12:58:46.383Z,4.23
2019-05-22T13:01:15.641Z,5.77
2019-05-22T13:03:45.635Z,3.00
2019-05-22T13:06:15.003Z,3.37
2019-05-22T13:08:44.315Z,5.97
2019-05-22T13:11:14.387Z,3.30
2019-05-22T13:13:43.510Z,6.47
2019-05-22T13:16:13.222Z,4.10
2019-05-22T13:18:42.770Z,4.90
2019-05-22T13:21:15.274Z,8.10
2019-05-22T13:23:45.854Z,3.70
2019-05-22T13:26:15.874Z,3.50
2019-05-22T13:28:47.254Z,4.03
2019-05-22T13:31:16.833Z,6.77
2019-05-22T13:33:46.544Z,7.60
2019-05-22T13:36:18.732Z,4.03
2019-05-22T13:38:48.443Z,4.17
2019-05-22T13:41:17.443Z,7.93
2019-05-22T13:43:47.411Z,3.03
2019-05-22T13:46:16.803Z,5.83
2019-05-22T13:48:45.645Z,3.57
2019-05-22T13:51:15.396Z,3.97
2019-05-22T13:53:45.164Z,7.47
2019-05-22T13:56:15.260Z,3.80
2019-05-22T13:58:45.503Z,8.13
2019-05-22T14:01:14.626Z,5.27
2019-05-22T14:03:44.098Z,4.83
2019-05-22T14:06:13.170Z,4.57
2019-05-22T14:08:42.672Z,3.70
2019-05-22T14:11:12.624Z,7.23
2019-05-22T14:13:42.427Z,6.03
2019-05-22T14:16:12.212Z,2.67
2019-05-22T14:18:41.460Z,2.27
2019-05-22T14:21:10.509Z,2.73
2019-05-22T14:23:39.784Z,4.10
2019-05-22T14:26:09.833Z,6.50
2019-05-22T14:28:39.584Z,2.33
2019-05-22T14:31:09.013Z,2.83
2019-05-22T14:33:40.613Z,4.20
2019-05-22T14:36:09.481Z,2.03
2019-05-22T14:38:38.670Z,4.13
2019-05-22T14:41:08.442Z,2.83
2019-05-22T14:43:37.735Z,4.00
2019-05-22T14:46:06.964Z,3.00
2019-05-22T14:48:55.490Z,5.27
2019-05-22T14:51:25.550Z,6.53
2019-05-22T14:53:57.306Z,5.10
2019-05-22T14:56:26.550Z,4.50
2019-05-22T14:58:56.443Z,5.30
2019-05-22T15:01:26.475Z,11.33
2019-05-22T15:03:56.157Z,4.80
2019-05-22T15:06:25.861Z,3.10
2019-05-22T15:08:55.329Z,6.23
2019-05-22T15:11:24.994Z,3.40
2019-05-22T15:13:54.811Z,1.93
2019-05-22T15:16:24.029Z,4.03
2019-05-22T15:18:53.929Z,4.60
2019-05-22T15:21:23.891Z,2.17
2019-05-22T15:23:54.650Z,2.70
2019-05-22T15:26:23.734Z,4.60
2019-05-22T15:28:52.591Z,7.83
2019-05-22T15:31:22.369Z,3.33
2019-05-22T15:33:51.511Z,3.43
2019-05-22T15:36:24.019Z,3.30
2019-05-22T15:38:53.967Z,7.50
2019-05-22T15:41:23.751Z,6.60
2019-05-22T15:43:54.000Z,6.70
2019-05-22T15:46:24.656Z,3.43
2019-05-22T15:48:56.132Z,3.20
2019-05-22T15:51:31.861Z,4.47
2019-05-22T15:54:03.381Z,4.20
2019-05-22T15:56:35.390Z,3.00
2019-05-22T15:59:05.929Z,2.67
2019-05-22T16:01:37.061Z,3.00
2019-05-22T16:04:09.378Z,5.03
2019-05-22T16:06:39.380Z,2.63
2019-05-22T16:09:13.180Z,5.30
2019-05-22T16:11:43.129Z,2.67
2019-05-22T16:14:14.986Z,2.50
2019-05-22T16:16:45.847Z,4.27
2019-05-22T16:19:18.659Z,5.33
2019-05-22T16:22:11.599Z,3.57
2019-05-22T16:24:40.974Z,6.20
2019-05-22T16:27:12.589Z,3.43
2019-05-22T16:29:42.207Z,3.00
2019-05-22T16:32:14.689Z,6.00
2019-05-22T16:34:44.812Z,6.53
2019-05-22T16:37:14.503Z,3.20
2019-05-22T16:39:44.233Z,4.20
2019-05-22T16:42:13.433Z,7.13
2019-05-22T16:44:43.621Z,4.27
2019-05-22T16:47:13.006Z,3.97
2019-05-22T16:49:43.221Z,3.50
2019-05-22T16:52:14.367Z,6.43
2019-05-22T16:54:45.596Z,3.00
2019-05-22T16:57:15.186Z,2.27
2019-05-22T16:59:45.931Z,3.40
2019-05-22T17:02:17.010Z,2.33
2019-05-22T17:04:47.531Z,2.57
2019-05-22T17:07:17.538Z,3.27
2019-05-22T17:09:47.275Z,6.73
2019-05-22T17:12:18.132Z,5.73
2019-05-22T17:14:49.168Z,2.30
2019-05-22T17:17:19.429Z,3.50
2019-05-22T17:19:48.970Z,2.50
2019-05-22T17:22:19.082Z,2.43
2019-05-22T17:24:48.346Z,2.47
2019-05-22T17:27:18.947Z,10.10
2019-05-22T17:29:50.765Z,2.50
2019-05-22T17:32:20.675Z,4.93
2019-05-22T17:34:50.576Z,5.90
2019-05-22T17:37:21.587Z,2.80
2019-05-22T17:39:51.986Z,3.17
2019-05-22T17:42:24.912Z,4.67
2019-05-22T17:44:55.426Z,4.73
2019-05-22T17:47:26.453Z,5.60
2019-05-22T17:49:56.022Z,4.97
2019-05-22T17:52:26.096Z,1.80
2019-05-22T17:54:56.838Z,4.57
2019-05-22T17:57:26.758Z,7.03
2019-05-22T17:59:55.907Z,4.73
2019-05-22T18:02:29.763Z,4.13
2019-05-22T18:04:59.486Z,4.97
2019-05-22T18:07:29.490Z,5.10
2019-05-22T18:09:59.054Z,3.30
2019-05-22T18:12:28.208Z,2.43
2019-05-22T18:14:57.265Z,3.30
2019-05-22T18:17:27.377Z,3.47
2019-05-22T18:19:56.633Z,4.93
2019-05-22T18:22:26.522Z,4.67
2019-05-22T18:24:56.010Z,4.37
2019-05-22T18:27:25.572Z,2.77
2019-05-22T18:29:55.024Z,3.23
2019-05-22T18:32:24.393Z,3.90
2019-05-22T18:34:53.497Z,4.90
2019-05-22T18:37:22.392Z,2.53
2019-05-22T18:39:51.580Z,4.30
2019-05-22T18:42:21.319Z,3.23
2019-05-22T18:44:51.011Z,1.63
2019-05-22T18:47:20.430Z,2.30
2019-05-22T18:49:49.572Z,2.00
2019-05-22T18:52:18.934Z,2.30
2019-05-22T18:54:48.134Z,4.43
2019-05-22T18:57:17.395Z,2.20
2019-05-22T18:59:47.039Z,5.73
2019-05-22T19:02:16.534Z,2.80
2019-05-22T19:04:45.731Z,3.40
2019-05-22T19:07:14.806Z,4.47
2019-05-22T19:09:43.847Z,5.33
2019-05-22T19:12:13.877Z,4.47
2019-05-22T19:14:44.472Z,2.43
2019-05-22T19:17:13.376Z,2.60
2019-05-22T19:19:42.243Z,4.60
2019-05-22T19:22:11.383Z,7.80
2019-05-22T19:24:40.632Z,4.03
2019-05-22T19:27:09.699Z,2.80
2019-05-22T19:29:39.197Z,8.50
2019-05-22T19:32:08.263Z,2.53
2019-05-22T19:34:37.100Z,5.90
2019-05-22T19:37:06.153Z,4.80
2019-05-22T19:39:36.071Z,2.50
2019-05-22T19:42:05.873Z,2.30
2019-05-22T19:44:35.018Z,4.07
2019-05-22T19:47:05.261Z,4.20
2019-05-22T19:49:35.238Z,6.27
2019-05-22T19:52:05.011Z,2.70
2019-05-22T19:54:34.558Z,2.50
2019-05-22T19:57:04.564Z,4.23
2019-05-22T19:59:34.274Z,2.50
2019-05-22T20:02:04.164Z,4.17
2019-05-22T20:04:33.667Z,10.30
2019-05-22T20:07:02.476Z,3.50
2019-05-22T20:09:31.672Z,4.37
2019-05-22T20:12:01.611Z,6.87
2019-05-22T20:14:30.871Z,6.47
2019-05-22T20:17:00.348Z,10.83
2019-05-22T20:19:30.145Z,8.63
2019-05-22T20:22:00.528Z,5.50
2019-05-22T20:24:30.441Z,4.13
2019-05-22T20:27:00.225Z,5.13
2019-05-22T20:29:29.788Z,3.77
2019-05-22T20:31:59.046Z,4.27
2019-05-22T20:34:28.686Z,5.60
2019-05-22T20:36:58.211Z,3.27
2019-05-22T20:39:29.550Z,3.17
2019-05-22T20:41:58.452Z,3.30
2019-05-22T20:44:28.872Z,6.73
2019-05-22T20:46:58.417Z,5.23
2019-05-22T20:49:29.368Z,4.10
2019-05-22T20:51:59.105Z,3.50
2019-05-22T20:54:30.304Z,4.13
2019-05-22T20:57:00.637Z,4.63
2019-05-22T20:59:30.905Z,4.47
2019-05-22T21:02:01.142Z,7.33
2019-05-22T21:04:33.542Z,5.00
2019-05-22T21:07:07.123Z,4.10
2019-05-22T21:09:37.612Z,5.93
2019-05-22T21:12:06.776Z,5.03
2019-05-22T21:15:12.303Z,11.90
2019-05-22T21:17:42.184Z,4.43
2019-05-22T21:20:15.543Z,4.77
2019-05-22T21:22:46.081Z,3.97
2019-05-22T21:25:16.430Z,3.20
2019-05-22T21:27:45.819Z,7.00
2019-05-22T21:30:15.500Z,3.33
2019-05-22T21:32:45.282Z,3.73
2019-05-22T21:35:16.462Z,4.70
2019-05-22T21:37:46.213Z,7.47
2019-05-22T21:40:17.834Z,3.93
2019-05-22T21:42:47.616Z,4.33
2019-05-22T21:45:17.029Z,5.13
2019-05-22T21:47:45.948Z,4.40
2019-05-22T21:50:16.502Z,3.97
2019-05-22T21:52:45.475Z,5.27
2019-05-22T21:55:16.175Z,4.10
2019-05-22T21:57:46.117Z,4.60
2019-05-22T22:00:22.272Z,3.80
2019-05-22T22:02:52.557Z,4.07
2019-05-22T22:05:22.273Z,5.80
2019-05-22T22:07:52.738Z,5.13
2019-05-22T22:10:22.592Z,3.97
2019-05-22T22:12:53.952Z,4.10
2019-05-22T22:15:43.784Z,4.10
2019-05-22T22:18:14.429Z,3.70
2019-05-22T22:20:43.483Z,4.87
2019-05-22T22:23:14.648Z,4.20
2019-05-22T22:25:44.108Z,4.97
2019-05-22T22:28:16.337Z,6.07
2019-05-22T22:30:52.291Z,5.03
2019-05-22T22:33:25.252Z,5.60
2019-05-22T22:35:56.048Z,4.20
2019-05-22T22:38:26.819Z,4.30
2019-05-22T22:40:56.970Z,6.53
2019-05-22T22:43:31.103Z,4.87
2019-05-22T22:46:18.363Z,6.53
2019-05-22T22:48:50.176Z,4.57
2019-05-22T22:51:20.204Z,5.23
2019-05-22T22:53:50.153Z,3.87
2019-05-22T22:56:21.072Z,10.47
2019-05-22T22:58:50.474Z,5.93
2019-05-22T23:01:27.612Z,5.00
2019-05-22T23:03:58.498Z,4.87
2019-05-22T23:06:27.625Z,5.17
2019-05-22T23:08:56.463Z,7.60
2019-05-22T23:11:27.830Z,5.20
2019-05-22T23:13:57.230Z,4.20
2019-05-22T23:16:27.751Z,5.13
2019-05-22T23:19:38.077Z,4.57
2019-05-22T23:22:26.970Z,4.80
2019-05-22T23:24:59.490Z,4.80
2019-05-22T23:27:29.141Z,5.63
2019-05-22T23:29:59.873Z,5.13
2019-05-22T23:32:29.483Z,5.53
2019-05-22T23:34:59.394Z,4.47
2019-05-22T23:37:28.839Z,4.57
2019-05-22T23:39:59.265Z,5.30
2019-05-22T23:42:34.310Z,4.70
2019-05-22T23:45:06.886Z,5.23
2019-05-22T23:47:41.308Z,4.33
2019-05-22T23:50:10.422Z,4.50
2019-05-22T23:52:39.763Z,5.53
2019-05-22T23:55:10.513Z,6.10
2019-05-22T23:57:39.704Z,6.70
